sensor_id;sensor_type;location;lat;lon;timestamp;temperature;humidity
20700;DHT22;10511;51.232;9.420;2022-12-20T00:01:55;3.50;99.90
20700;DHT22;10511;51.232;9.420;2022-12-20T00:04:22;3.50;99.90
20700;DHT22;10511;51.232;9.420;2022-12-20T00:06:49;3.60;99.90
20700;DHT22;10511;51.232;9.420;2022-12-20T00:09:16;3.50;99.90
20700;DHT22;10511;51.232;9.420;2022-12-20T00:11:44;3.50;99.90
20700;DHT22;10511;51.232;9.420;2022-12-20T00:14:11;3.50;99.90
20700;DHT22;10511;51.232;9.420;2022-12-20T00:16:38;3.50;99.90
20700;DHT22;10511;51.232;9.420;2022-12-20T00:19:06;3.60;99.90
20700;DHT22;10511;51.232;9.420;2022-12-20T00:21:34;3.60;99.90
20700;DHT22;10511;51.232;9.420;2022-12-20T00:24:01;3.70;99.90
20700;DHT22;10511;51.232;9.420;2022-12-20T00:26:31;3.80;99.90
20700;DHT22;10511;51.232;9.420;2022-12-20T00:29:00;3.80;99.90
20700;DHT22;10511;51.232;9.420;2022-12-20T00:31:29;3.70;99.90
20700;DHT22;10511;51.232;9.420;2022-12-20T00:33:57;3.80;99.90
20700;DHT22;10511;51.232;9.420;2022-12-20T00:36:26;3.80;99.90
20700;DHT22;10511;51.232;9.420;2022-12-20T00:38:55;3.80;99.90
20700;DHT22;10511;51.232;9.420;2022-12-20T00:41:24;3.90;99.90
20700;DHT22;10511;51.232;9.420;2022-12-20T00:43:51;3.80;99.90
20700;DHT22;10511;51.232;9.420;2022-12-20T00:46:20;3.90;99.90
20700;DHT22;10511;51.232;9.420;2022-12-20T00:48:49;3.90;99.90
20700;DHT22;10511;51.232;9.420;2022-12-20T00:51:18;3.80;99.90
20700;DHT22;10511;51.232;9.420;2022-12-20T00:53:46;3.80;99.90
20700;DHT22;10511;51.232;9.420;2022-12-20T00:56:13;3.80;99.90
20700;DHT22;10511;51.232;9.420;2022-12-20T00:58:41;3.80;99.90
20700;DHT22;10511;51.232;9.420;2022-12-20T01:01:15;3.80;99.90
20700;DHT22;10511;51.232;9.420;2022-12-20T01:03:44;3.80;99.90
20700;DHT22;10511;51.232;9.420;2022-12-20T01:06:11;3.80;99.90
20700;DHT22;10511;51.232;9.420;2022-12-20T01:08:38;3.80;99.90
20700;DHT22;10511;51.232;9.420;2022-12-20T01:11:07;3.90;99.90
20700;DHT22;10511;51.232;9.420;2022-12-20T01:13:36;3.80;99.90
20700;DHT22;10511;51.232;9.420;2022-12-20T01:16:04;3.90;99.90
20700;DHT22;10511;51.232;9.420;2022-12-20T01:18:31;3.80;99.90
20700;DHT22;10511;51.232;9.420;2022-12-20T01:21:04;3.80;99.90
20700;DHT22;10511;51.232;9.420;2022-12-20T01:23:31;3.70;99.90
20700;DHT22;10511;51.232;9.420;2022-12-20T01:25:59;3.80;99.90
20700;DHT22;10511;51.232;9.420;2022-12-20T01:28:27;3.70;99.90
20700;DHT22;10511;51.232;9.420;2022-12-20T01:30:54;3.70;99.90
20700;DHT22;10511;51.232;9.420;2022-12-20T01:33:21;3.80;99.90
20700;DHT22;10511;51.232;9.420;2022-12-20T01:35:55;3.70;99.90
20700;DHT22;10511;51.232;9.420;2022-12-20T01:38:24;3.70;99.90
20700;DHT22;10511;51.232;9.420;2022-12-20T01:40:51;3.80;99.90
20700;DHT22;10511;51.232;9.420;2022-12-20T01:43:19;3.80;99.90
20700;DHT22;10511;51.232;9.420;2022-12-20T01:45:46;3.80;99.90
20700;DHT22;10511;51.232;9.420;2022-12-20T01:48:14;3.80;99.90
20700;DHT22;10511;51.232;9.420;2022-12-20T01:50:43;3.80;99.90
20700;DHT22;10511;51.232;9.420;2022-12-20T01:53:10;3.80;99.90
20700;DHT22;10511;51.232;9.420;2022-12-20T01:55:39;3.80;99.90
20700;DHT22;10511;51.232;9.420;2022-12-20T01:58:08;3.70;99.90
20700;DHT22;10511;51.232;9.420;2022-12-20T02:00:36;3.80;99.90
20700;DHT22;10511;51.232;9.420;2022-12-20T02:03:05;3.80;99.90
20700;DHT22;10511;51.232;9.420;2022-12-20T02:05:34;3.80;99.90
20700;DHT22;10511;51.232;9.420;2022-12-20T02:08:02;3.80;99.90
20700;DHT22;10511;51.232;9.420;2022-12-20T02:10:35;3.80;99.90
20700;DHT22;10511;51.232;9.420;2022-12-20T02:13:11;3.80;99.90
20700;DHT22;10511;51.232;9.420;2022-12-20T02:15:45;3.90;99.90
20700;DHT22;10511;51.232;9.420;2022-12-20T02:18:21;3.90;99.90
20700;DHT22;10511;51.232;9.420;2022-12-20T02:21:07;3.90;99.90
20700;DHT22;10511;51.232;9.420;2022-12-20T02:26:57;3.90;99.90
20700;DHT22;10511;51.232;9.420;2022-12-20T02:29:32;3.80;99.90
20700;DHT22;10511;51.232;9.420;2022-12-20T02:32:07;3.90;99.90
20700;DHT22;10511;51.232;9.420;2022-12-20T02:34:36;3.90;99.90
20700;DHT22;10511;51.232;9.420;2022-12-20T02:37:03;3.90;99.90
20700;DHT22;10511;51.232;9.420;2022-12-20T02:39:31;3.80;99.90
20700;DHT22;10511;51.232;9.420;2022-12-20T02:42:03;3.80;99.90
20700;DHT22;10511;51.232;9.420;2022-12-20T02:44:32;3.80;99.90
20700;DHT22;10511;51.232;9.420;2022-12-20T02:47:23;3.90;99.90
20700;DHT22;10511;51.232;9.420;2022-12-20T02:49:53;3.90;99.90
20700;DHT22;10511;51.232;9.420;2022-12-20T02:52:23;3.90;99.90
20700;DHT22;10511;51.232;9.420;2022-12-20T02:54:52;3.90;99.90
20700;DHT22;10511;51.232;9.420;2022-12-20T02:57:24;3.90;99.90
20700;DHT22;10511;51.232;9.420;2022-12-20T02:59:56;3.90;99.90
20700;DHT22;10511;51.232;9.420;2022-12-20T03:02:31;3.90;99.90
20700;DHT22;10511;51.232;9.420;2022-12-20T03:05:24;3.90;99.90
20700;DHT22;10511;51.232;9.420;2022-12-20T03:07:56;3.90;99.90
20700;DHT22;10511;51.232;9.420;2022-12-20T03:10:23;3.80;99.90
20700;DHT22;10511;51.232;9.420;2022-12-20T03:12:51;3.80;99.90
20700;DHT22;10511;51.232;9.420;2022-12-20T03:15:18;3.80;99.90
20700;DHT22;10511;51.232;9.420;2022-12-20T03:17:46;3.80;99.90
20700;DHT22;10511;51.232;9.420;2022-12-20T03:20:13;3.80;99.90
20700;DHT22;10511;51.232;9.420;2022-12-20T03:22:40;3.80;99.90
20700;DHT22;10511;51.232;9.420;2022-12-20T03:25:08;3.80;99.90
20700;DHT22;10511;51.232;9.420;2022-12-20T03:27:35;3.80;99.90
20700;DHT22;10511;51.232;9.420;2022-12-20T03:30:03;3.90;99.90
20700;DHT22;10511;51.232;9.420;2022-12-20T03:32:30;3.90;99.90
20700;DHT22;10511;51.232;9.420;2022-12-20T03:34:58;3.90;99.90
20700;DHT22;10511;51.232;9.420;2022-12-20T03:37:25;3.90;99.90
20700;DHT22;10511;51.232;9.420;2022-12-20T03:39:52;3.90;99.90
20700;DHT22;10511;51.232;9.420;2022-12-20T03:42:19;3.90;99.90
20700;DHT22;10511;51.232;9.420;2022-12-20T03:44:46;3.90;99.90
20700;DHT22;10511;51.232;9.420;2022-12-20T03:47:13;3.90;99.90
20700;DHT22;10511;51.232;9.420;2022-12-20T03:49:40;4.00;99.90
20700;DHT22;10511;51.232;9.420;2022-12-20T03:52:10;4.10;99.90
20700;DHT22;10511;51.232;9.420;2022-12-20T03:54:37;4.00;99.90
20700;DHT22;10511;51.232;9.420;2022-12-20T03:57:05;4.00;99.90
20700;DHT22;10511;51.232;9.420;2022-12-20T03:59:32;4.10;99.90
20700;DHT22;10511;51.232;9.420;2022-12-20T04:02:00;4.10;99.90
20700;DHT22;10511;51.232;9.420;2022-12-20T04:04:27;4.10;99.90
20700;DHT22;10511;51.232;9.420;2022-12-20T04:06:54;4.10;99.90
20700;DHT22;10511;51.232;9.420;2022-12-20T04:09:23;4.10;99.90
20700;DHT22;10511;51.232;9.420;2022-12-20T04:11:49;4.10;99.90
20700;DHT22;10511;51.232;9.420;2022-12-20T04:14:16;4.20;99.90
20700;DHT22;10511;51.232;9.420;2022-12-20T04:16:43;4.20;99.90
20700;DHT22;10511;51.232;9.420;2022-12-20T04:19:10;4.20;99.90
20700;DHT22;10511;51.232;9.420;2022-12-20T04:21:37;4.20;99.90
20700;DHT22;10511;51.232;9.420;2022-12-20T04:24:05;4.20;99.90
20700;DHT22;10511;51.232;9.420;2022-12-20T04:26:33;4.20;99.90
20700;DHT22;10511;51.232;9.420;2022-12-20T04:29:00;4.10;99.90
20700;DHT22;10511;51.232;9.420;2022-12-20T04:31:27;4.10;99.90
20700;DHT22;10511;51.232;9.420;2022-12-20T04:33:54;4.10;99.90
20700;DHT22;10511;51.232;9.420;2022-12-20T04:36:21;4.10;99.90
20700;DHT22;10511;51.232;9.420;2022-12-20T04:38:48;4.00;99.90
20700;DHT22;10511;51.232;9.420;2022-12-20T04:41:15;4.10;99.90
20700;DHT22;10511;51.232;9.420;2022-12-20T04:43:50;4.10;99.90
20700;DHT22;10511;51.232;9.420;2022-12-20T04:46:18;4.10;99.90
20700;DHT22;10511;51.232;9.420;2022-12-20T04:48:45;4.20;99.90
20700;DHT22;10511;51.232;9.420;2022-12-20T04:51:12;4.20;99.90
20700;DHT22;10511;51.232;9.420;2022-12-20T04:53:39;4.20;99.90
20700;DHT22;10511;51.232;9.420;2022-12-20T04:56:17;4.20;99.90
20700;DHT22;10511;51.232;9.420;2022-12-20T04:58:46;4.20;99.90
20700;DHT22;10511;51.232;9.420;2022-12-20T05:01:15;4.20;99.90
20700;DHT22;10511;51.232;9.420;2022-12-20T05:03:42;4.20;99.90
20700;DHT22;10511;51.232;9.420;2022-12-20T05:06:09;4.20;99.90
20700;DHT22;10511;51.232;9.420;2022-12-20T05:08:37;4.20;99.90
20700;DHT22;10511;51.232;9.420;2022-12-20T05:11:05;4.30;99.90
20700;DHT22;10511;51.232;9.420;2022-12-20T05:13:32;4.40;99.90
20700;DHT22;10511;51.232;9.420;2022-12-20T05:16:00;4.40;99.90
20700;DHT22;10511;51.232;9.420;2022-12-20T05:18:29;4.40;99.90
20700;DHT22;10511;51.232;9.420;2022-12-20T05:20:57;4.40;99.90
20700;DHT22;10511;51.232;9.420;2022-12-20T05:23:44;4.40;99.90
20700;DHT22;10511;51.232;9.420;2022-12-20T05:26:32;4.40;99.90
20700;DHT22;10511;51.232;9.420;2022-12-20T05:28:59;4.40;99.90
20700;DHT22;10511;51.232;9.420;2022-12-20T05:31:26;4.30;99.90
20700;DHT22;10511;51.232;9.420;2022-12-20T05:33:55;4.30;99.90
20700;DHT22;10511;51.232;9.420;2022-12-20T05:36:22;4.30;99.90
20700;DHT22;10511;51.232;9.420;2022-12-20T05:38:48;4.30;99.90
20700;DHT22;10511;51.232;9.420;2022-12-20T05:41:15;4.30;99.90
20700;DHT22;10511;51.232;9.420;2022-12-20T05:43:42;4.30;99.90
20700;DHT22;10511;51.232;9.420;2022-12-20T05:46:10;4.40;99.90
20700;DHT22;10511;51.232;9.420;2022-12-20T05:48:37;4.50;99.90
20700;DHT22;10511;51.232;9.420;2022-12-20T05:51:05;4.50;99.90
20700;DHT22;10511;51.232;9.420;2022-12-20T05:53:32;4.50;99.90
20700;DHT22;10511;51.232;9.420;2022-12-20T05:55:59;4.50;99.90
20700;DHT22;10511;51.232;9.420;2022-12-20T05:58:27;4.60;99.90
20700;DHT22;10511;51.232;9.420;2022-12-20T06:00:55;4.60;99.90
20700;DHT22;10511;51.232;9.420;2022-12-20T06:03:23;4.70;99.90
20700;DHT22;10511;51.232;9.420;2022-12-20T06:05:49;4.60;99.90
20700;DHT22;10511;51.232;9.420;2022-12-20T06:08:18;4.60;99.90
20700;DHT22;10511;51.232;9.420;2022-12-20T06:10:47;4.60;99.90
20700;DHT22;10511;51.232;9.420;2022-12-20T06:13:14;4.60;99.90
20700;DHT22;10511;51.232;9.420;2022-12-20T06:15:42;4.60;99.90
20700;DHT22;10511;51.232;9.420;2022-12-20T06:18:09;4.60;99.90
20700;DHT22;10511;51.232;9.420;2022-12-20T06:20:36;4.60;99.90
20700;DHT22;10511;51.232;9.420;2022-12-20T06:23:03;4.60;99.90
20700;DHT22;10511;51.232;9.420;2022-12-20T06:25:32;4.60;99.90
20700;DHT22;10511;51.232;9.420;2022-12-20T06:27:59;4.60;99.90
20700;DHT22;10511;51.232;9.420;2022-12-20T06:30:26;4.60;99.90
20700;DHT22;10511;51.232;9.420;2022-12-20T06:32:53;4.60;99.90
20700;DHT22;10511;51.232;9.420;2022-12-20T06:35:20;4.60;99.90
20700;DHT22;10511;51.232;9.420;2022-12-20T06:37:47;4.60;99.90
20700;DHT22;10511;51.232;9.420;2022-12-20T06:40:14;4.60;99.90
20700;DHT22;10511;51.232;9.420;2022-12-20T06:42:42;4.70;99.90
20700;DHT22;10511;51.232;9.420;2022-12-20T06:45:09;4.70;99.90
20700;DHT22;10511;51.232;9.420;2022-12-20T06:47:37;4.70;99.90
20700;DHT22;10511;51.232;9.420;2022-12-20T06:50:06;4.60;99.90
20700;DHT22;10511;51.232;9.420;2022-12-20T06:52:33;4.60;99.90
20700;DHT22;10511;51.232;9.420;2022-12-20T06:55:00;4.60;99.90
20700;DHT22;10511;51.232;9.420;2022-12-20T06:57:27;4.60;99.90
20700;DHT22;10511;51.232;9.420;2022-12-20T06:59:55;4.60;99.90
20700;DHT22;10511;51.232;9.420;2022-12-20T07:02:22;4.70;99.90
20700;DHT22;10511;51.232;9.420;2022-12-20T07:04:49;4.60;99.90
20700;DHT22;10511;51.232;9.420;2022-12-20T07:07:16;4.70;99.90
20700;DHT22;10511;51.232;9.420;2022-12-20T07:09:43;4.70;99.90
20700;DHT22;10511;51.232;9.420;2022-12-20T07:12:11;4.70;99.90
20700;DHT22;10511;51.232;9.420;2022-12-20T07:14:38;4.70;99.90
20700;DHT22;10511;51.232;9.420;2022-12-20T07:17:07;4.70;99.90
20700;DHT22;10511;51.232;9.420;2022-12-20T07:19:34;4.70;99.90
20700;DHT22;10511;51.232;9.420;2022-12-20T07:22:02;4.70;99.90
20700;DHT22;10511;51.232;9.420;2022-12-20T07:24:29;4.70;99.90
20700;DHT22;10511;51.232;9.420;2022-12-20T07:26:56;4.80;99.90
20700;DHT22;10511;51.232;9.420;2022-12-20T07:29:23;4.80;99.90
20700;DHT22;10511;51.232;9.420;2022-12-20T07:31:50;4.80;99.90
20700;DHT22;10511;51.232;9.420;2022-12-20T07:34:18;4.70;99.90
20700;DHT22;10511;51.232;9.420;2022-12-20T07:36:46;4.70;99.90
20700;DHT22;10511;51.232;9.420;2022-12-20T07:39:13;4.60;99.90
20700;DHT22;10511;51.232;9.420;2022-12-20T07:41:39;4.60;99.90
20700;DHT22;10511;51.232;9.420;2022-12-20T07:44:06;4.60;99.90
20700;DHT22;10511;51.232;9.420;2022-12-20T07:46:33;4.60;99.90
20700;DHT22;10511;51.232;9.420;2022-12-20T07:49:00;4.70;99.90
20700;DHT22;10511;51.232;9.420;2022-12-20T07:51:31;4.70;99.90
20700;DHT22;10511;51.232;9.420;2022-12-20T07:54:05;4.70;99.90
20700;DHT22;10511;51.232;9.420;2022-12-20T07:56:32;4.60;99.90
20700;DHT22;10511;51.232;9.420;2022-12-20T07:59:01;4.60;99.90
20700;DHT22;10511;51.232;9.420;2022-12-20T08:01:29;4.60;99.90
20700;DHT22;10511;51.232;9.420;2022-12-20T08:04:00;4.70;99.90
20700;DHT22;10511;51.232;9.420;2022-12-20T08:06:30;4.70;99.90
20700;DHT22;10511;51.232;9.420;2022-12-20T08:08:59;4.70;99.90
20700;DHT22;10511;51.232;9.420;2022-12-20T08:11:29;4.80;99.90
20700;DHT22;10511;51.232;9.420;2022-12-20T08:13:56;4.80;99.90
20700;DHT22;10511;51.232;9.420;2022-12-20T08:16:23;4.80;99.90
20700;DHT22;10511;51.232;9.420;2022-12-20T08:18:51;4.80;99.90
20700;DHT22;10511;51.232;9.420;2022-12-20T08:21:18;4.80;99.90
20700;DHT22;10511;51.232;9.420;2022-12-20T08:23:46;4.80;99.90
20700;DHT22;10511;51.232;9.420;2022-12-20T08:26:13;4.80;99.90
20700;DHT22;10511;51.232;9.420;2022-12-20T08:28:40;4.80;99.90
20700;DHT22;10511;51.232;9.420;2022-12-20T08:31:08;4.80;99.90
20700;DHT22;10511;51.232;9.420;2022-12-20T08:33:36;4.80;99.90
20700;DHT22;10511;51.232;9.420;2022-12-20T08:36:05;4.90;99.90
20700;DHT22;10511;51.232;9.420;2022-12-20T08:38:33;4.90;99.90
20700;DHT22;10511;51.232;9.420;2022-12-20T08:41:05;5.10;99.90
20700;DHT22;10511;51.232;9.420;2022-12-20T08:43:33;5.20;99.90
20700;DHT22;10511;51.232;9.420;2022-12-20T08:46:00;5.30;99.90
20700;DHT22;10511;51.232;9.420;2022-12-20T08:48:28;5.40;99.90
20700;DHT22;10511;51.232;9.420;2022-12-20T08:50:56;5.50;99.90
20700;DHT22;10511;51.232;9.420;2022-12-20T08:53:23;5.50;99.90
20700;DHT22;10511;51.232;9.420;2022-12-20T08:55:50;5.50;99.90
20700;DHT22;10511;51.232;9.420;2022-12-20T08:58:21;5.50;99.90
20700;DHT22;10511;51.232;9.420;2022-12-20T09:00:58;5.50;99.90
20700;DHT22;10511;51.232;9.420;2022-12-20T09:03:28;5.50;99.90
20700;DHT22;10511;51.232;9.420;2022-12-20T09:05:59;5.60;99.90
20700;DHT22;10511;51.232;9.420;2022-12-20T09:08:26;5.60;99.90
20700;DHT22;10511;51.232;9.420;2022-12-20T09:10:53;5.70;99.90
20700;DHT22;10511;51.232;9.420;2022-12-20T09:13:21;5.70;99.90
20700;DHT22;10511;51.232;9.420;2022-12-20T09:15:48;5.70;99.90
20700;DHT22;10511;51.232;9.420;2022-12-20T09:18:15;5.70;99.90
20700;DHT22;10511;51.232;9.420;2022-12-20T09:20:43;5.80;99.90
20700;DHT22;10511;51.232;9.420;2022-12-20T09:23:11;5.90;99.90
20700;DHT22;10511;51.232;9.420;2022-12-20T09:25:38;5.90;99.90
20700;DHT22;10511;51.232;9.420;2022-12-20T09:28:04;6.00;99.90
20700;DHT22;10511;51.232;9.420;2022-12-20T09:30:33;5.90;99.90
20700;DHT22;10511;51.232;9.420;2022-12-20T09:33:00;6.00;99.90
20700;DHT22;10511;51.232;9.420;2022-12-20T09:35:27;6.10;99.90
20700;DHT22;10511;51.232;9.420;2022-12-20T09:37:53;6.20;99.90
20700;DHT22;10511;51.232;9.420;2022-12-20T09:40:22;6.20;99.90
20700;DHT22;10511;51.232;9.420;2022-12-20T09:42:50;6.10;99.90
20700;DHT22;10511;51.232;9.420;2022-12-20T09:45:24;6.10;99.90
20700;DHT22;10511;51.232;9.420;2022-12-20T09:47:52;6.20;99.90
20700;DHT22;10511;51.232;9.420;2022-12-20T09:50:24;6.20;99.90
20700;DHT22;10511;51.232;9.420;2022-12-20T09:53:04;6.20;99.90
20700;DHT22;10511;51.232;9.420;2022-12-20T09:55:41;6.20;99.90
20700;DHT22;10511;51.232;9.420;2022-12-20T09:58:26;6.30;99.90
20700;DHT22;10511;51.232;9.420;2022-12-20T10:01:11;6.40;99.90
20700;DHT22;10511;51.232;9.420;2022-12-20T10:03:41;6.40;99.90
20700;DHT22;10511;51.232;9.420;2022-12-20T10:06:16;6.30;99.90
20700;DHT22;10511;51.232;9.420;2022-12-20T10:08:50;6.30;99.90
20700;DHT22;10511;51.232;9.420;2022-12-20T10:11:36;6.40;99.90
20700;DHT22;10511;51.232;9.420;2022-12-20T10:14:15;6.50;99.90
20700;DHT22;10511;51.232;9.420;2022-12-20T10:16:47;6.50;99.90
20700;DHT22;10511;51.232;9.420;2022-12-20T10:19:50;6.60;99.90
20700;DHT22;10511;51.232;9.420;2022-12-20T10:22:21;6.70;99.90
20700;DHT22;10511;51.232;9.420;2022-12-20T10:24:55;6.80;99.90
20700;DHT22;10511;51.232;9.420;2022-12-20T10:27:24;6.80;99.90
20700;DHT22;10511;51.232;9.420;2022-12-20T10:29:51;6.80;99.90
20700;DHT22;10511;51.232;9.420;2022-12-20T10:32:20;6.90;99.90
20700;DHT22;10511;51.232;9.420;2022-12-20T10:34:54;7.00;99.90
20700;DHT22;10511;51.232;9.420;2022-12-20T10:37:21;7.00;99.90
20700;DHT22;10511;51.232;9.420;2022-12-20T10:39:49;7.00;99.90
20700;DHT22;10511;51.232;9.420;2022-12-20T10:42:26;7.00;99.90
20700;DHT22;10511;51.232;9.420;2022-12-20T10:44:56;7.00;99.90
20700;DHT22;10511;51.232;9.420;2022-12-20T10:47:33;7.00;99.90
20700;DHT22;10511;51.232;9.420;2022-12-20T10:50:14;7.00;99.90
20700;DHT22;10511;51.232;9.420;2022-12-20T10:52:41;7.00;99.90
20700;DHT22;10511;51.232;9.420;2022-12-20T10:55:31;7.00;99.90
20700;DHT22;10511;51.232;9.420;2022-12-20T10:58:04;7.00;99.90
20700;DHT22;10511;51.232;9.420;2022-12-20T11:00:32;7.00;99.90
20700;DHT22;10511;51.232;9.420;2022-12-20T11:03:10;7.10;99.90
20700;DHT22;10511;51.232;9.420;2022-12-20T11:05:39;7.10;99.90
20700;DHT22;10511;51.232;9.420;2022-12-20T11:08:12;7.10;99.90
20700;DHT22;10511;51.232;9.420;2022-12-20T11:10:40;7.10;99.90
20700;DHT22;10511;51.232;9.420;2022-12-20T11:13:19;7.10;99.90
20700;DHT22;10511;51.232;9.420;2022-12-20T11:15:49;7.10;99.90
20700;DHT22;10511;51.232;9.420;2022-12-20T11:18:26;7.20;99.90
20700;DHT22;10511;51.232;9.420;2022-12-20T11:21:02;7.20;99.90
20700;DHT22;10511;51.232;9.420;2022-12-20T11:23:37;7.30;99.90
20700;DHT22;10511;51.232;9.420;2022-12-20T11:26:19;7.30;99.90
20700;DHT22;10511;51.232;9.420;2022-12-20T11:28:59;7.40;99.90
20700;DHT22;10511;51.232;9.420;2022-12-20T11:31:41;7.30;99.90
20700;DHT22;10511;51.232;9.420;2022-12-20T11:34:18;7.40;99.90
20700;DHT22;10511;51.232;9.420;2022-12-20T11:39:45;7.40;99.90
20700;DHT22;10511;51.232;9.420;2022-12-20T11:42:17;7.50;99.90
20700;DHT22;10511;51.232;9.420;2022-12-20T11:44:56;7.60;99.90
20700;DHT22;10511;51.232;9.420;2022-12-20T11:47:46;7.60;99.90
20700;DHT22;10511;51.232;9.420;2022-12-20T11:50:44;7.70;99.90
20700;DHT22;10511;51.232;9.420;2022-12-20T11:53:21;7.80;99.90
20700;DHT22;10511;51.232;9.420;2022-12-20T11:55:53;7.90;99.90
20700;DHT22;10511;51.232;9.420;2022-12-20T11:58:26;7.90;99.90
20700;DHT22;10511;51.232;9.420;2022-12-20T12:00:56;7.90;99.90
20700;DHT22;10511;51.232;9.420;2022-12-20T12:03:29;7.90;99.90
20700;DHT22;10511;51.232;9.420;2022-12-20T12:06:01;7.90;99.90
20700;DHT22;10511;51.232;9.420;2022-12-20T12:08:40;7.90;99.90
20700;DHT22;10511;51.232;9.420;2022-12-20T12:11:13;7.90;99.90
20700;DHT22;10511;51.232;9.420;2022-12-20T12:13:42;8.00;99.90
20700;DHT22;10511;51.232;9.420;2022-12-20T12:16:12;8.00;99.90
20700;DHT22;10511;51.232;9.420;2022-12-20T12:18:42;8.00;99.90
20700;DHT22;10511;51.232;9.420;2022-12-20T12:21:15;8.00;99.90
20700;DHT22;10511;51.232;9.420;2022-12-20T12:23:52;7.90;99.90
20700;DHT22;10511;51.232;9.420;2022-12-20T12:26:25;7.80;99.90
20700;DHT22;10511;51.232;9.420;2022-12-20T12:28:54;7.80;99.90
20700;DHT22;10511;51.232;9.420;2022-12-20T12:31:27;7.80;99.90
20700;DHT22;10511;51.232;9.420;2022-12-20T12:34:04;7.80;99.90
20700;DHT22;10511;51.232;9.420;2022-12-20T12:37:04;7.80;99.90
20700;DHT22;10511;51.232;9.420;2022-12-20T12:40:06;7.90;99.90
20700;DHT22;10511;51.232;9.420;2022-12-20T12:43:01;7.80;99.90
20700;DHT22;10511;51.232;9.420;2022-12-20T12:45:35;7.80;99.90
20700;DHT22;10511;51.232;9.420;2022-12-20T12:48:06;8.00;99.90
20700;DHT22;10511;51.232;9.420;2022-12-20T12:50:36;8.00;99.90
20700;DHT22;10511;51.232;9.420;2022-12-20T12:53:05;8.00;99.90
20700;DHT22;10511;51.232;9.420;2022-12-20T12:55:40;7.90;99.90
20700;DHT22;10511;51.232;9.420;2022-12-20T12:58:38;8.00;99.90
20700;DHT22;10511;51.232;9.420;2022-12-20T13:01:08;8.10;99.90
20700;DHT22;10511;51.232;9.420;2022-12-20T13:04:09;8.00;99.90
20700;DHT22;10511;51.232;9.420;2022-12-20T13:09:46;8.00;99.90
20700;DHT22;10511;51.232;9.420;2022-12-20T13:15:49;8.10;99.90
20700;DHT22;10511;51.232;9.420;2022-12-20T13:18:22;8.10;99.90
20700;DHT22;10511;51.232;9.420;2022-12-20T13:30:24;7.90;99.90
20700;DHT22;10511;51.232;9.420;2022-12-20T13:32:58;7.90;99.90
20700;DHT22;10511;51.232;9.420;2022-12-20T13:35:31;7.90;99.90
20700;DHT22;10511;51.232;9.420;2022-12-20T13:38:36;7.80;99.90
20700;DHT22;10511;51.232;9.420;2022-12-20T13:41:12;7.90;99.90
20700;DHT22;10511;51.232;9.420;2022-12-20T13:43:45;8.00;99.90
20700;DHT22;10511;51.232;9.420;2022-12-20T13:46:17;7.90;99.90
20700;DHT22;10511;51.232;9.420;2022-12-20T13:48:51;8.00;99.90
20700;DHT22;10511;51.232;9.420;2022-12-20T13:51:19;8.00;99.90
20700;DHT22;10511;51.232;9.420;2022-12-20T13:53:52;8.00;99.90
20700;DHT22;10511;51.232;9.420;2022-12-20T13:56:30;8.00;99.90
20700;DHT22;10511;51.232;9.420;2022-12-20T13:59:04;8.00;99.90
20700;DHT22;10511;51.232;9.420;2022-12-20T14:01:32;8.00;99.90
20700;DHT22;10511;51.232;9.420;2022-12-20T14:04:03;8.00;99.90
20700;DHT22;10511;51.232;9.420;2022-12-20T14:06:32;8.10;99.90
20700;DHT22;10511;51.232;9.420;2022-12-20T14:09:00;8.00;99.90
20700;DHT22;10511;51.232;9.420;2022-12-20T14:11:27;8.10;99.90
20700;DHT22;10511;51.232;9.420;2022-12-20T14:13:56;8.20;99.90
20700;DHT22;10511;51.232;9.420;2022-12-20T14:16:25;8.20;99.90
20700;DHT22;10511;51.232;9.420;2022-12-20T14:19:01;8.20;99.90
20700;DHT22;10511;51.232;9.420;2022-12-20T14:21:29;8.20;99.90
20700;DHT22;10511;51.232;9.420;2022-12-20T14:23:57;8.10;99.90
20700;DHT22;10511;51.232;9.420;2022-12-20T14:26:27;8.10;99.90
20700;DHT22;10511;51.232;9.420;2022-12-20T14:28:55;8.00;99.90
20700;DHT22;10511;51.232;9.420;2022-12-20T14:31:24;8.10;99.90
20700;DHT22;10511;51.232;9.420;2022-12-20T14:34:02;8.10;99.90
20700;DHT22;10511;51.232;9.420;2022-12-20T14:36:30;8.00;99.90
20700;DHT22;10511;51.232;9.420;2022-12-20T14:38:58;8.00;99.90
20700;DHT22;10511;51.232;9.420;2022-12-20T14:41:31;8.00;99.90
20700;DHT22;10511;51.232;9.420;2022-12-20T14:44:03;7.90;99.90
20700;DHT22;10511;51.232;9.420;2022-12-20T14:46:32;8.00;99.90
20700;DHT22;10511;51.232;9.420;2022-12-20T14:49:19;7.90;99.90
20700;DHT22;10511;51.232;9.420;2022-12-20T14:51:48;8.00;99.90
20700;DHT22;10511;51.232;9.420;2022-12-20T14:54:19;8.00;99.90
20700;DHT22;10511;51.232;9.420;2022-12-20T14:56:47;8.00;99.90
20700;DHT22;10511;51.232;9.420;2022-12-20T14:59:21;7.90;99.90
20700;DHT22;10511;51.232;9.420;2022-12-20T15:01:49;7.90;99.90
20700;DHT22;10511;51.232;9.420;2022-12-20T15:04:30;7.90;99.90
20700;DHT22;10511;51.232;9.420;2022-12-20T15:06:58;7.90;99.90
20700;DHT22;10511;51.232;9.420;2022-12-20T15:09:25;7.90;99.90
20700;DHT22;10511;51.232;9.420;2022-12-20T15:11:52;7.80;99.90
20700;DHT22;10511;51.232;9.420;2022-12-20T15:14:31;7.80;99.90
20700;DHT22;10511;51.232;9.420;2022-12-20T15:16:58;7.90;99.90
20700;DHT22;10511;51.232;9.420;2022-12-20T15:19:27;7.90;99.90
20700;DHT22;10511;51.232;9.420;2022-12-20T15:21:56;7.80;99.90
20700;DHT22;10511;51.232;9.420;2022-12-20T15:24:24;7.80;99.90
20700;DHT22;10511;51.232;9.420;2022-12-20T15:26:52;7.80;99.90
20700;DHT22;10511;51.232;9.420;2022-12-20T15:29:21;7.70;99.90
20700;DHT22;10511;51.232;9.420;2022-12-20T15:31:50;7.70;99.90
20700;DHT22;10511;51.232;9.420;2022-12-20T15:34:22;7.70;99.90
20700;DHT22;10511;51.232;9.420;2022-12-20T15:36:54;7.70;99.90
20700;DHT22;10511;51.232;9.420;2022-12-20T15:39:24;7.70;99.90
20700;DHT22;10511;51.232;9.420;2022-12-20T15:41:52;7.80;99.90
20700;DHT22;10511;51.232;9.420;2022-12-20T15:44:21;7.80;99.90
20700;DHT22;10511;51.232;9.420;2022-12-20T15:46:49;7.70;99.90
20700;DHT22;10511;51.232;9.420;2022-12-20T15:49:18;7.80;99.90
20700;DHT22;10511;51.232;9.420;2022-12-20T15:51:46;7.70;99.90
20700;DHT22;10511;51.232;9.420;2022-12-20T15:54:21;7.70;99.90
20700;DHT22;10511;51.232;9.420;2022-12-20T15:56:48;7.70;99.90
20700;DHT22;10511;51.232;9.420;2022-12-20T15:59:15;7.60;99.90
20700;DHT22;10511;51.232;9.420;2022-12-20T16:01:42;7.60;99.90
20700;DHT22;10511;51.232;9.420;2022-12-20T16:04:13;7.60;99.90
20700;DHT22;10511;51.232;9.420;2022-12-20T16:06:41;7.60;99.90
20700;DHT22;10511;51.232;9.420;2022-12-20T16:09:08;7.60;99.90
20700;DHT22;10511;51.232;9.420;2022-12-20T16:11:36;7.60;99.90
20700;DHT22;10511;51.232;9.420;2022-12-20T16:14:03;7.60;99.90
20700;DHT22;10511;51.232;9.420;2022-12-20T16:16:32;7.70;99.90
20700;DHT22;10511;51.232;9.420;2022-12-20T16:19:00;7.70;99.90
20700;DHT22;10511;51.232;9.420;2022-12-20T16:21:31;7.70;99.90
20700;DHT22;10511;51.232;9.420;2022-12-20T16:23:58;7.80;99.90
20700;DHT22;10511;51.232;9.420;2022-12-20T16:26:25;7.80;99.90
20700;DHT22;10511;51.232;9.420;2022-12-20T16:28:54;7.70;99.90